createdAt,value
2018-11-11T00:00:30.744Z,97.90
2018-11-11T00:01:03.390Z,98.10
2018-11-11T00:01:35.979Z,97.90
2018-11-11T00:02:08.611Z,97.90
2018-11-11T00:02:41.227Z,97.90
2018-11-11T00:03:13.873Z,98.00
2018-11-11T00:03:46.451Z,98.10
2018-11-11T00:04:19.038Z,98.20
2018-11-11T00:04:51.784Z,98.30
2018-11-11T00:05:25.990Z,98.40
2018-11-11T00:05:58.607Z,98.40
2018-11-11T00:06:31.236Z,98.50
2018-11-11T00:07:04.067Z,98.50
2018-11-11T00:07:36.754Z,98.50
2018-11-11T00:08:09.452Z,98.50
2018-11-11T00:08:42.100Z,98.40
2018-11-11T00:09:14.764Z,98.50
2018-11-11T00:09:47.496Z,98.50
2018-11-11T00:10:20.205Z,98.70
2018-11-11T00:10:52.812Z,98.50
2018-11-11T00:11:25.474Z,98.50
2018-11-11T00:11:58.106Z,98.50
2018-11-11T00:12:30.714Z,98.40
2018-11-11T00:13:03.368Z,98.40
2018-11-11T00:13:36.010Z,98.50
2018-11-11T00:14:08.915Z,98.50
2018-11-11T00:14:41.519Z,98.30
2018-11-11T00:15:16.323Z,98.40
2018-11-11T00:15:50.445Z,98.30
2018-11-11T00:16:24.289Z,98.30
2018-11-11T00:16:57.724Z,98.20
2018-11-11T00:17:31.142Z,98.10
2018-11-11T00:18:03.895Z,98.20
2018-11-11T00:18:37.792Z,98.60
2018-11-11T00:19:11.398Z,98.30
2018-11-11T00:19:44.078Z,98.30
2018-11-11T00:20:18.038Z,98.30
2018-11-11T00:20:51.259Z,98.30
2018-11-11T00:21:24.936Z,98.30
2018-11-11T00:21:58.758Z,98.30
2018-11-11T00:22:33.122Z,98.40
2018-11-11T00:23:05.898Z,98.60
2018-11-11T00:23:39.531Z,98.40
2018-11-11T00:24:13.028Z,98.30
2018-11-11T00:24:47.046Z,98.30
2018-11-11T00:25:20.280Z,98.20
2018-11-11T00:25:52.912Z,98.00
2018-11-11T00:26:27.304Z,98.10
2018-11-11T00:27:01.123Z,98.20
2018-11-11T00:27:34.484Z,98.20
2018-11-11T00:28:08.327Z,98.20
2018-11-11T00:28:43.059Z,98.10
2018-11-11T00:29:16.094Z,98.20
2018-11-11T00:29:49.146Z,98.30
2018-11-11T00:30:22.240Z,98.20
2018-11-11T00:30:56.133Z,98.20
2018-11-11T00:31:28.738Z,98.20
2018-11-11T00:32:01.687Z,98.30
2018-11-11T00:32:34.735Z,98.30
2018-11-11T00:33:09.295Z,98.30
2018-11-11T00:33:43.561Z,98.30
2018-11-11T00:34:17.712Z,98.30
2018-11-11T00:34:51.470Z,98.40
2018-11-11T00:35:24.361Z,98.50
2018-11-11T00:35:58.227Z,98.20
2018-11-11T00:36:32.188Z,98.20
2018-11-11T00:37:06.432Z,98.40
2018-11-11T00:37:40.145Z,98.50
2018-11-11T00:38:12.917Z,98.50
2018-11-11T00:38:46.416Z,98.40
2018-11-11T00:39:19.347Z,98.30
2018-11-11T00:39:54.452Z,98.50
2018-11-11T00:40:28.761Z,98.50
2018-11-11T00:41:02.531Z,98.50
2018-11-11T00:41:35.147Z,98.60
2018-11-11T00:42:08.667Z,98.60
2018-11-11T00:42:41.671Z,98.40
2018-11-11T00:43:15.144Z,98.20
2018-11-11T00:43:49.002Z,98.20
2018-11-11T00:44:21.667Z,98.20
2018-11-11T00:44:55.058Z,98.20
2018-11-11T00:45:28.622Z,98.30
2018-11-11T00:46:02.804Z,98.40
2018-11-11T00:46:35.916Z,98.50
2018-11-11T00:47:09.701Z,98.50
2018-11-11T00:47:45.070Z,98.60
2018-11-11T00:48:18.870Z,98.70
2018-11-11T00:48:52.751Z,98.50
2018-11-11T00:49:25.835Z,98.30
2018-11-11T00:50:00.018Z,98.20
2018-11-11T00:50:33.107Z,98.30
2018-11-11T00:51:07.177Z,98.50
2018-11-11T00:51:40.841Z,98.50
2018-11-11T00:52:14.695Z,98.30
2018-11-11T00:52:48.746Z,98.20
2018-11-11T00:53:22.121Z,98.30
2018-11-11T00:53:55.991Z,98.30
2018-11-11T00:54:30.446Z,98.20
2018-11-11T00:55:05.681Z,98.00
2018-11-11T00:55:40.139Z,97.90
2018-11-11T00:56:14.612Z,98.00
2018-11-11T00:56:47.834Z,97.70
2018-11-11T00:57:20.730Z,97.60
2018-11-11T00:57:54.608Z,97.50
2018-11-11T00:58:28.582Z,97.50
2018-11-11T00:59:01.361Z,97.60
2018-11-11T00:59:35.451Z,97.60
2018-11-11T01:00:14.138Z,97.60
2018-11-11T01:00:46.731Z,97.40
2018-11-11T01:01:20.115Z,97.50
2018-11-11T01:01:53.875Z,97.30
2018-11-11T01:02:26.529Z,97.50
2018-11-11T01:03:00.495Z,97.60
2018-11-11T01:03:34.687Z,97.60
2018-11-11T01:04:08.426Z,97.80
2018-11-11T01:04:41.275Z,97.70
2018-11-11T01:05:15.795Z,97.70
2018-11-11T01:05:49.560Z,97.80
2018-11-11T01:06:23.864Z,97.50
2018-11-11T01:06:57.303Z,97.40
2018-11-11T01:07:31.997Z,97.30
2018-11-11T01:08:06.025Z,97.30
2018-11-11T01:08:39.694Z,97.30
2018-11-11T01:09:13.425Z,97.30
2018-11-11T01:09:46.607Z,97.30
2018-11-11T01:10:20.360Z,97.20
2018-11-11T01:10:54.112Z,96.90
2018-11-11T01:11:26.922Z,96.70
2018-11-11T01:12:00.741Z,96.70
2018-11-11T01:12:34.505Z,96.40
2018-11-11T01:13:08.387Z,96.60
2018-11-11T01:13:43.037Z,96.70
2018-11-11T01:14:16.867Z,96.90
2018-11-11T01:14:50.814Z,96.80
2018-11-11T01:15:25.050Z,97.00
2018-11-11T01:15:57.639Z,97.20
2018-11-11T01:16:30.682Z,97.20
2018-11-11T01:17:03.876Z,97.30
2018-11-11T01:17:37.306Z,97.50
2018-11-11T01:18:10.763Z,97.60
2018-11-11T01:18:44.785Z,97.80
2018-11-11T01:19:18.806Z,97.80
2018-11-11T01:19:51.898Z,97.90
2018-11-11T01:20:26.346Z,98.00
2018-11-11T01:20:59.273Z,97.90
2018-11-11T01:21:32.859Z,97.80
2018-11-11T01:22:06.724Z,97.70
2018-11-11T01:22:40.580Z,97.70
2018-11-11T01:23:13.863Z,97.60
2018-11-11T01:23:47.450Z,97.50
2018-11-11T01:24:21.259Z,97.60
2018-11-11T01:24:55.585Z,97.60
2018-11-11T01:25:28.292Z,97.40
2018-11-11T01:26:01.377Z,97.30
2018-11-11T01:26:35.954Z,97.10
2018-11-11T01:27:09.589Z,97.20
2018-11-11T01:27:42.307Z,97.20
2018-11-11T01:28:16.927Z,97.20
2018-11-11T01:28:51.911Z,97.40
2018-11-11T01:29:24.696Z,97.20
2018-11-11T01:29:57.792Z,96.80
2018-11-11T01:30:30.355Z,96.80
2018-11-11T01:31:04.608Z,96.90
2018-11-11T01:31:38.180Z,97.00
2018-11-11T01:32:11.991Z,97.10
2018-11-11T01:32:45.737Z,97.10
2018-11-11T01:33:19.694Z,97.00
2018-11-11T01:33:54.391Z,97.00
2018-11-11T01:34:28.275Z,97.20
2018-11-11T01:35:02.292Z,97.30
2018-11-11T01:35:36.637Z,97.30
2018-11-11T01:36:10.598Z,97.30
2018-11-11T01:36:44.992Z,97.30
2018-11-11T01:37:17.683Z,97.50
2018-11-11T01:37:50.283Z,97.50
2018-11-11T01:38:22.875Z,97.50
2018-11-11T01:38:55.464Z,97.70
2018-11-11T01:39:28.099Z,97.80
2018-11-11T01:40:00.717Z,97.90
2018-11-11T01:40:33.311Z,97.70
2018-11-11T01:41:05.954Z,97.70
2018-11-11T01:41:38.542Z,97.80
2018-11-11T01:42:11.155Z,97.80
2018-11-11T01:42:43.798Z,97.80
2018-11-11T01:43:16.424Z,97.80
2018-11-11T01:43:49.022Z,97.80
2018-11-11T01:44:21.605Z,97.70
2018-11-11T01:44:54.185Z,97.90
2018-11-11T01:45:26.807Z,97.90
2018-11-11T01:45:59.416Z,98.00
2018-11-11T01:46:32.014Z,97.80
2018-11-11T01:47:04.685Z,97.80
2018-11-11T01:47:37.286Z,97.80
2018-11-11T01:48:09.948Z,97.50
2018-11-11T01:48:42.565Z,97.70
2018-11-11T01:49:15.146Z,97.80
2018-11-11T01:49:47.742Z,97.80
2018-11-11T01:50:20.357Z,98.00
2018-11-11T01:50:52.935Z,97.90
2018-11-11T01:51:25.504Z,98.00
2018-11-11T01:51:58.127Z,98.00
2018-11-11T01:52:30.750Z,97.80
2018-11-11T01:53:03.363Z,98.00
2018-11-11T01:53:36.012Z,97.90
2018-11-11T01:54:08.580Z,97.90
2018-11-11T01:54:41.243Z,97.90
2018-11-11T01:55:14.211Z,98.00
2018-11-11T01:55:46.834Z,98.10
2018-11-11T01:56:19.402Z,98.10
2018-11-11T01:56:51.971Z,98.10
2018-11-11T01:57:24.552Z,98.00
2018-11-11T01:57:57.124Z,97.90
2018-11-11T01:58:29.727Z,98.00
2018-11-11T01:59:02.381Z,98.10
2018-11-11T01:59:34.955Z,98.30
2018-11-11T02:00:19.364Z,98.30
2018-11-11T02:00:51.944Z,98.40
2018-11-11T02:01:24.572Z,98.50
2018-11-11T02:01:57.175Z,98.30
2018-11-11T02:02:29.745Z,98.30
2018-11-11T02:03:02.368Z,98.10
2018-11-11T02:03:34.944Z,98.20
2018-11-11T02:04:07.571Z,98.20
2018-11-11T02:04:40.163Z,98.20
2018-11-11T02:05:13.286Z,98.20
2018-11-11T02:05:45.886Z,98.10
2018-11-11T02:06:18.487Z,97.90
2018-11-11T02:06:51.075Z,98.00
2018-11-11T02:07:23.685Z,98.00
2018-11-11T02:07:56.309Z,98.10
2018-11-11T02:08:28.886Z,97.80
2018-11-11T02:09:01.475Z,97.70
2018-11-11T02:09:34.091Z,97.90
2018-11-11T02:10:07.915Z,97.60
2018-11-11T02:10:40.544Z,97.60
2018-11-11T02:11:13.195Z,97.60
2018-11-11T02:11:45.778Z,97.60
2018-11-11T02:12:18.400Z,97.50
2018-11-11T02:12:51.029Z,97.50
2018-11-11T02:13:23.669Z,97.60
2018-11-11T02:13:56.662Z,97.30
2018-11-11T02:14:29.239Z,97.20
2018-11-11T02:15:01.917Z,97.40
2018-11-11T02:15:34.512Z,97.50
2018-11-11T02:16:07.107Z,97.80
2018-11-11T02:16:39.718Z,97.90
2018-11-11T02:17:12.295Z,98.00
2018-11-11T02:17:44.937Z,98.00
2018-11-11T02:18:17.526Z,98.00
2018-11-11T02:18:50.122Z,97.80
2018-11-11T02:19:22.745Z,97.70
2018-11-11T02:19:56.564Z,97.60
2018-11-11T02:20:29.230Z,97.40
2018-11-11T02:21:01.963Z,97.10
2018-11-11T02:21:34.646Z,97.20
2018-11-11T02:22:07.238Z,97.20
2018-11-11T02:22:39.916Z,97.20
2018-11-11T02:23:12.540Z,97.30
2018-11-11T02:23:45.174Z,97.40
2018-11-11T02:24:17.828Z,97.50
2018-11-11T02:24:50.410Z,97.50
2018-11-11T02:25:22.995Z,97.40
2018-11-11T02:25:55.607Z,97.30
2018-11-11T02:26:28.216Z,97.20
2018-11-11T02:27:00.817Z,97.10
2018-11-11T02:27:33.453Z,97.00
2018-11-11T02:28:06.072Z,96.90
2018-11-11T02:28:38.690Z,96.70
2018-11-11T02:29:11.287Z,96.80
2018-11-11T02:29:43.913Z,96.80
2018-11-11T02:30:17.768Z,96.60
2018-11-11T02:30:50.384Z,96.50
2018-11-11T02:31:23.014Z,96.50
2018-11-11T02:31:55.600Z,96.50
2018-11-11T02:32:28.212Z,96.70
2018-11-11T02:33:00.784Z,96.70
2018-11-11T02:33:33.455Z,96.80
2018-11-11T02:34:06.101Z,96.90
2018-11-11T02:34:38.724Z,96.90
2018-11-11T02:35:11.736Z,96.80
2018-11-11T02:35:44.359Z,96.80
2018-11-11T02:36:16.952Z,96.80
2018-11-11T02:36:49.604Z,96.90
2018-11-11T02:37:22.196Z,97.00
2018-11-11T02:37:54.818Z,97.10
2018-11-11T02:38:27.433Z,97.00
2018-11-11T02:39:00.079Z,96.90
2018-11-11T02:39:32.698Z,96.80
2018-11-11T02:40:07.375Z,96.60
2018-11-11T02:40:39.976Z,96.30
2018-11-11T02:41:12.555Z,96.70
2018-11-11T02:41:45.166Z,96.60
2018-11-11T02:42:17.810Z,96.50
2018-11-11T02:42:50.402Z,96.50
2018-11-11T02:43:22.975Z,96.70
2018-11-11T02:43:55.580Z,96.90
2018-11-11T02:44:28.223Z,96.80
2018-11-11T02:45:00.831Z,96.90
2018-11-11T02:45:33.428Z,96.90
2018-11-11T02:46:06.054Z,96.80
2018-11-11T02:46:38.668Z,96.90
2018-11-11T02:47:11.291Z,97.00
2018-11-11T02:47:43.938Z,96.90
2018-11-11T02:48:16.510Z,97.00
2018-11-11T02:48:49.103Z,96.80
2018-11-11T02:49:21.752Z,96.70
2018-11-11T02:49:54.329Z,96.90
2018-11-11T02:50:26.919Z,97.10
2018-11-11T02:50:59.533Z,97.10
2018-11-11T02:51:32.142Z,97.00
2018-11-11T02:52:04.985Z,96.90
2018-11-11T02:52:37.775Z,96.90
2018-11-11T02:53:10.379Z,96.90
2018-11-11T02:53:42.949Z,96.90
2018-11-11T02:54:15.827Z,96.80
2018-11-11T02:54:48.441Z,96.90
2018-11-11T02:55:21.072Z,97.00
2018-11-11T02:55:53.684Z,97.00
2018-11-11T02:56:26.268Z,97.00
2018-11-11T02:56:58.883Z,97.00
2018-11-11T02:57:31.478Z,96.90
2018-11-11T02:58:04.079Z,97.00
2018-11-11T02:58:36.703Z,97.00
2018-11-11T02:59:09.291Z,97.00
2018-11-11T02:59:41.901Z,97.10
2018-11-11T03:00:16.726Z,97.00
2018-11-11T03:00:49.330Z,97.00
2018-11-11T03:01:21.960Z,97.00
2018-11-11T03:01:54.557Z,97.00
2018-11-11T03:02:27.122Z,97.00
2018-11-11T03:02:59.700Z,97.00
2018-11-11T03:03:32.295Z,97.00
2018-11-11T03:04:04.928Z,97.00
2018-11-11T03:04:37.563Z,97.10
2018-11-11T03:05:11.374Z,97.10
2018-11-11T03:05:43.960Z,97.00
2018-11-11T03:06:16.561Z,97.10
2018-11-11T03:06:49.152Z,97.10
2018-11-11T03:07:21.788Z,96.90
2018-11-11T03:07:54.394Z,96.80
2018-11-11T03:08:26.990Z,96.70
2018-11-11T03:08:59.571Z,96.70
2018-11-11T03:09:32.178Z,96.80
2018-11-11T03:10:04.986Z,96.80
2018-11-11T03:10:37.617Z,96.90
2018-11-11T03:11:10.222Z,96.70
2018-11-11T03:11:42.784Z,96.70
2018-11-11T03:12:15.390Z,96.70
2018-11-11T03:12:49.119Z,96.70
2018-11-11T03:13:21.692Z,96.80
2018-11-11T03:13:54.343Z,96.90
2018-11-11T03:14:26.942Z,96.70
2018-11-11T03:14:59.570Z,96.60
2018-11-11T03:15:32.132Z,96.50
2018-11-11T03:16:04.802Z,96.60
2018-11-11T03:16:37.871Z,96.70
2018-11-11T03:17:10.462Z,97.00
2018-11-11T03:17:43.054Z,96.80
2018-11-11T03:18:15.633Z,96.70
2018-11-11T03:18:48.208Z,96.70
2018-11-11T03:19:20.798Z,96.60
2018-11-11T03:19:53.404Z,96.70
2018-11-11T03:20:26.028Z,96.50
2018-11-11T03:20:58.623Z,96.60
2018-11-11T03:21:31.655Z,96.50
2018-11-11T03:22:04.255Z,96.30
2018-11-11T03:22:36.905Z,96.10
2018-11-11T03:23:09.523Z,96.40
2018-11-11T03:23:42.091Z,96.20
2018-11-11T03:24:14.662Z,96.10
2018-11-11T03:24:47.277Z,96.10
2018-11-11T03:25:19.852Z,96.30
2018-11-11T03:25:52.463Z,96.40
2018-11-11T03:26:25.060Z,96.50
2018-11-11T03:26:57.627Z,96.50
2018-11-11T03:27:30.276Z,96.80
2018-11-11T03:28:02.859Z,96.60
2018-11-11T03:28:35.460Z,96.60
2018-11-11T03:29:08.578Z,96.50
2018-11-11T03:29:41.155Z,96.50
2018-11-11T03:30:15.061Z,96.60
2018-11-11T03:30:47.642Z,96.30
2018-11-11T03:31:20.263Z,96.30
2018-11-11T03:31:52.856Z,96.30
2018-11-11T03:32:25.487Z,96.20
2018-11-11T03:32:58.051Z,96.20
2018-11-11T03:33:30.642Z,96.40
2018-11-11T03:34:03.296Z,96.40
2018-11-11T03:34:35.902Z,96.40
2018-11-11T03:35:09.983Z,96.30
2018-11-11T03:35:42.591Z,96.50
2018-11-11T03:36:15.211Z,96.50
2018-11-11T03:36:47.856Z,96.50
2018-11-11T03:37:20.515Z,96.80
2018-11-11T03:37:53.094Z,96.70
2018-11-11T03:38:25.714Z,96.80
2018-11-11T03:38:58.314Z,96.80
2018-11-11T03:39:30.899Z,96.90
2018-11-11T03:40:05.609Z,96.70
2018-11-11T03:40:38.193Z,96.60
2018-11-11T03:41:10.768Z,96.30
2018-11-11T03:41:43.420Z,96.20
2018-11-11T03:42:16.032Z,96.00
2018-11-11T03:42:49.418Z,96.00
2018-11-11T03:43:21.999Z,96.00
2018-11-11T03:43:54.610Z,96.00
2018-11-11T03:44:27.228Z,96.10
2018-11-11T03:44:59.818Z,96.00
2018-11-11T03:45:32.431Z,96.10
2018-11-11T03:46:05.019Z,96.20
2018-11-11T03:46:37.582Z,96.30
2018-11-11T03:47:10.184Z,96.40
2018-11-11T03:47:43.727Z,96.40
2018-11-11T03:48:16.303Z,96.30
2018-11-11T03:48:48.885Z,96.30
2018-11-11T03:49:21.511Z,96.30
2018-11-11T03:49:54.123Z,96.40
2018-11-11T03:50:26.730Z,96.30
2018-11-11T03:50:59.323Z,96.70
2018-11-11T03:51:31.959Z,96.40
2018-11-11T03:52:04.773Z,96.40
2018-11-11T03:52:37.681Z,96.40
2018-11-11T03:53:10.322Z,96.30
2018-11-11T03:53:42.948Z,96.40
2018-11-11T03:54:15.560Z,96.50
2018-11-11T03:54:48.143Z,96.50
2018-11-11T03:55:20.756Z,96.60
2018-11-11T03:55:53.342Z,96.70
2018-11-11T03:56:25.934Z,96.60
2018-11-11T03:56:58.556Z,96.60
2018-11-11T03:57:31.136Z,96.60
2018-11-11T03:58:03.743Z,96.70
2018-11-11T03:58:36.536Z,96.70
2018-11-11T03:59:09.057Z,96.70
2018-11-11T03:59:41.668Z,96.70
2018-11-11T04:00:15.353Z,96.70
2018-11-11T04:00:47.954Z,96.70
2018-11-11T04:01:20.538Z,96.80
2018-11-11T04:01:53.138Z,96.90
2018-11-11T04:02:25.719Z,96.90
2018-11-11T04:02:58.314Z,96.90
2018-11-11T04:03:30.914Z,96.80
2018-11-11T04:04:03.611Z,96.90
2018-11-11T04:04:36.279Z,96.90
2018-11-11T04:05:10.136Z,97.00
2018-11-11T04:05:42.724Z,96.90
2018-11-11T04:06:15.332Z,96.80
2018-11-11T04:06:47.926Z,96.80
2018-11-11T04:07:20.560Z,96.80
2018-11-11T04:07:53.148Z,97.00
2018-11-11T04:08:25.724Z,97.00
2018-11-11T04:08:58.360Z,97.00
2018-11-11T04:09:30.978Z,97.00
2018-11-11T04:10:04.796Z,96.90
2018-11-11T04:10:37.370Z,96.70
2018-11-11T04:11:09.980Z,96.60
2018-11-11T04:11:42.613Z,96.50
2018-11-11T04:12:15.240Z,96.60
2018-11-11T04:12:48.492Z,96.70
2018-11-11T04:13:21.088Z,96.50
2018-11-11T04:13:53.717Z,96.50
2018-11-11T04:14:26.318Z,96.60
2018-11-11T04:14:58.919Z,96.70
2018-11-11T04:15:31.566Z,96.90
2018-11-11T04:16:04.226Z,96.90
2018-11-11T04:16:36.924Z,96.80
2018-11-11T04:17:09.506Z,96.80
2018-11-11T04:17:42.214Z,96.80
2018-11-11T04:18:14.804Z,97.00
2018-11-11T04:18:47.408Z,96.90
2018-11-11T04:19:19.991Z,97.00
2018-11-11T04:19:52.607Z,97.10
2018-11-11T04:20:25.200Z,97.10
2018-11-11T04:20:57.844Z,97.00
2018-11-11T04:21:30.448Z,97.00
2018-11-11T04:22:07.614Z,97.00
2018-11-11T04:22:40.253Z,96.90
2018-11-11T04:23:12.881Z,96.70
2018-11-11T04:23:45.475Z,96.50
2018-11-11T04:24:18.078Z,96.40
2018-11-11T04:24:51.827Z,96.40
2018-11-11T04:25:24.451Z,96.20
2018-11-11T04:25:57.075Z,96.20
2018-11-11T04:26:29.646Z,96.20
2018-11-11T04:27:02.250Z,96.20
2018-11-11T04:27:34.839Z,96.20
2018-11-11T04:28:07.453Z,96.30
2018-11-11T04:28:40.039Z,96.30
2018-11-11T04:29:12.667Z,96.20
2018-11-11T04:29:45.274Z,96.30
2018-11-11T04:30:17.843Z,96.10
2018-11-11T04:30:50.463Z,96.10
2018-11-11T04:31:23.077Z,96.20
2018-11-11T04:31:55.662Z,96.20
2018-11-11T04:32:28.494Z,96.20
2018-11-11T04:33:01.176Z,96.30
2018-11-11T04:33:33.788Z,96.40
2018-11-11T04:34:06.621Z,96.40
2018-11-11T04:34:39.729Z,96.20
2018-11-11T04:35:12.701Z,96.10
2018-11-11T04:35:45.342Z,96.20
2018-11-11T04:36:17.951Z,96.20
2018-11-11T04:36:50.620Z,96.20
2018-11-11T04:37:23.202Z,96.30
2018-11-11T04:37:55.811Z,96.30
2018-11-11T04:38:28.394Z,96.20
2018-11-11T04:39:01.022Z,96.10
2018-11-11T04:39:33.660Z,96.10
2018-11-11T04:40:07.920Z,96.10
2018-11-11T04:40:40.583Z,96.00
2018-11-11T04:41:13.193Z,96.00
2018-11-11T04:41:45.812Z,96.00
2018-11-11T04:42:19.012Z,96.00
2018-11-11T04:42:51.666Z,96.00
2018-11-11T04:43:24.246Z,96.10
2018-11-11T04:43:56.811Z,96.10
2018-11-11T04:44:29.501Z,96.00
2018-11-11T04:45:02.146Z,95.80
2018-11-11T04:45:34.742Z,95.80
2018-11-11T04:46:07.335Z,95.90
2018-11-11T04:46:39.964Z,96.00
2018-11-11T04:47:12.570Z,95.90
2018-11-11T04:47:45.871Z,95.90
2018-11-11T04:48:18.537Z,96.00
2018-11-11T04:48:51.168Z,96.40
2018-11-11T04:49:23.792Z,96.20
2018-11-11T04:49:56.399Z,96.20
2018-11-11T04:50:28.991Z,96.20
2018-11-11T04:51:01.608Z,96.10
2018-11-11T04:51:34.342Z,96.10
2018-11-11T04:52:06.951Z,96.20
2018-11-11T04:52:39.558Z,96.10
2018-11-11T04:53:12.167Z,96.40
2018-11-11T04:53:44.752Z,96.10
2018-11-11T04:54:17.323Z,96.00
2018-11-11T04:54:49.931Z,96.10
2018-11-11T04:55:22.570Z,96.20
2018-11-11T04:55:55.163Z,96.30
2018-11-11T04:56:27.760Z,96.30
2018-11-11T04:57:00.343Z,96.40
2018-11-11T04:57:32.946Z,96.50
2018-11-11T04:58:05.587Z,96.70
2018-11-11T04:58:38.232Z,96.60
2018-11-11T04:59:10.891Z,96.50
2018-11-11T04:59:43.463Z,96.50
2018-11-11T05:00:16.091Z,96.60
2018-11-11T05:00:48.694Z,96.70
2018-11-11T05:01:21.373Z,96.70
2018-11-11T05:01:53.977Z,96.70
2018-11-11T05:02:26.614Z,96.70
2018-11-11T05:02:59.206Z,96.70
2018-11-11T05:03:32.029Z,96.80
2018-11-11T05:04:04.717Z,96.80
2018-11-11T05:04:37.360Z,96.80
2018-11-11T05:05:10.963Z,96.90
2018-11-11T05:05:43.550Z,96.90
2018-11-11T05:06:16.162Z,96.80
2018-11-11T05:06:48.758Z,96.80
2018-11-11T05:07:21.350Z,96.60
2018-11-11T05:07:53.924Z,96.50
2018-11-11T05:08:26.544Z,96.50
2018-11-11T05:08:59.114Z,96.40
2018-11-11T05:09:31.754Z,96.50
2018-11-11T05:10:04.562Z,96.60
2018-11-11T05:10:37.143Z,96.60
2018-11-11T05:11:09.731Z,96.50
2018-11-11T05:11:42.365Z,96.40
2018-11-11T05:12:14.934Z,96.40
2018-11-11T05:12:47.519Z,96.40
2018-11-11T05:13:20.163Z,96.40
2018-11-11T05:13:52.901Z,96.30
2018-11-11T05:14:25.626Z,96.30
2018-11-11T05:14:58.243Z,96.30
2018-11-11T05:15:30.996Z,96.30
2018-11-11T05:16:03.667Z,96.00
2018-11-11T05:16:36.323Z,95.90
2018-11-11T05:17:08.993Z,96.20
2018-11-11T05:17:41.835Z,95.90
2018-11-11T05:18:14.531Z,95.80
2018-11-11T05:18:47.182Z,95.80
2018-11-11T05:19:19.876Z,96.10
2018-11-11T05:19:52.473Z,95.90
2018-11-11T05:20:25.134Z,95.90
2018-11-11T05:20:57.790Z,95.80
2018-11-11T05:21:30.344Z,95.90
2018-11-11T05:22:03.052Z,95.90
2018-11-11T05:22:35.707Z,96.00
2018-11-11T05:23:08.476Z,95.80
2018-11-11T05:23:41.152Z,95.80
2018-11-11T05:24:13.748Z,95.90
2018-11-11T05:24:46.367Z,95.90
2018-11-11T05:25:19.068Z,95.80
2018-11-11T05:25:51.714Z,95.90
2018-11-11T05:26:24.387Z,95.90
2018-11-11T05:26:56.971Z,95.80
2018-11-11T05:27:29.608Z,96.00
2018-11-11T05:28:02.226Z,96.10
2018-11-11T05:28:34.854Z,96.20
2018-11-11T05:29:07.451Z,96.30
2018-11-11T05:29:40.152Z,96.20
2018-11-11T05:30:13.428Z,96.20
2018-11-11T05:30:46.119Z,95.70
2018-11-11T05:31:18.712Z,95.90
2018-11-11T05:31:51.314Z,96.00
2018-11-11T05:32:23.919Z,96.00
2018-11-11T05:32:56.568Z,96.00
2018-11-11T05:33:29.142Z,96.10
2018-11-11T05:34:01.741Z,96.00
2018-11-11T05:34:34.359Z,96.10
2018-11-11T05:35:07.524Z,96.20
2018-11-11T05:35:40.139Z,96.00
2018-11-11T05:36:12.735Z,95.90
2018-11-11T05:36:45.389Z,95.90
2018-11-11T05:37:17.972Z,96.00
2018-11-11T05:37:50.618Z,95.90
2018-11-11T05:38:23.229Z,96.00
2018-11-11T05:38:55.836Z,96.20
2018-11-11T05:39:28.407Z,96.20
2018-11-11T05:40:00.990Z,96.20
2018-11-11T05:40:33.608Z,96.20
2018-11-11T05:41:06.235Z,96.30
2018-11-11T05:41:39.022Z,96.30
2018-11-11T05:42:11.645Z,96.20
2018-11-11T05:42:44.301Z,96.10
2018-11-11T05:43:16.907Z,96.20
2018-11-11T05:43:49.526Z,96.30
2018-11-11T05:44:22.158Z,96.30
2018-11-11T05:44:54.771Z,96.30
2018-11-11T05:45:27.396Z,96.10
2018-11-11T05:45:59.995Z,95.90
2018-11-11T05:46:32.616Z,95.80
2018-11-11T05:47:05.534Z,95.90
2018-11-11T05:47:38.479Z,96.00
2018-11-11T05:48:11.108Z,96.10
2018-11-11T05:48:43.682Z,96.10
2018-11-11T05:49:16.371Z,96.10
2018-11-11T05:49:48.934Z,96.00
2018-11-11T05:50:21.555Z,96.10
2018-11-11T05:50:54.147Z,96.10
2018-11-11T05:51:26.722Z,96.10
2018-11-11T05:51:59.344Z,96.10
2018-11-11T05:52:31.938Z,96.10
2018-11-11T05:53:04.567Z,95.90
2018-11-11T05:53:37.140Z,95.70
2018-11-11T05:54:09.756Z,95.80
2018-11-11T05:54:42.372Z,95.90
2018-11-11T05:55:15.004Z,95.90
2018-11-11T05:55:47.628Z,95.90
2018-11-11T05:56:20.245Z,95.90
2018-11-11T05:56:52.834Z,95.90
2018-11-11T05:57:25.499Z,95.90
2018-11-11T05:57:58.156Z,95.70
2018-11-11T05:58:30.846Z,95.80
2018-11-11T05:59:03.670Z,95.80
2018-11-11T05:59:36.246Z,95.80
2018-11-11T06:00:11.181Z,95.60
2018-11-11T06:00:43.811Z,95.70
2018-11-11T06:01:16.410Z,95.70
2018-11-11T06:01:49.058Z,95.60
2018-11-11T06:02:21.657Z,95.60
2018-11-11T06:02:54.249Z,95.50
2018-11-11T06:03:26.874Z,95.50
2018-11-11T06:03:59.528Z,95.50
2018-11-11T06:04:32.149Z,95.40
2018-11-11T06:05:06.504Z,95.40
2018-11-11T06:05:39.122Z,95.40
2018-11-11T06:06:11.769Z,95.50
2018-11-11T06:06:44.370Z,95.50
2018-11-11T06:07:17.045Z,95.60
2018-11-11T06:07:49.637Z,95.70
2018-11-11T06:08:22.260Z,95.40
2018-11-11T06:08:54.887Z,95.60
2018-11-11T06:09:27.532Z,95.50
2018-11-11T06:10:00.123Z,95.50
2018-11-11T06:10:32.742Z,95.30
2018-11-11T06:11:05.376Z,95.40
2018-11-11T06:11:38.804Z,95.50
2018-11-11T06:12:11.399Z,95.50
2018-11-11T06:12:44.035Z,95.50
2018-11-11T06:13:16.633Z,95.50
2018-11-11T06:13:49.236Z,95.60
2018-11-11T06:14:21.855Z,95.50
2018-11-11T06:14:54.469Z,95.60
2018-11-11T06:15:27.059Z,95.70
2018-11-11T06:15:59.710Z,95.90
2018-11-11T06:16:32.331Z,95.90
2018-11-11T06:17:04.979Z,95.90
2018-11-11T06:17:38.218Z,95.60
2018-11-11T06:18:10.814Z,95.70
2018-11-11T06:18:43.439Z,95.70
2018-11-11T06:19:16.115Z,95.80
2018-11-11T06:19:48.760Z,95.70
2018-11-11T06:20:21.417Z,95.80
2018-11-11T06:20:54.039Z,95.60
2018-11-11T06:21:26.701Z,95.60
2018-11-11T06:21:59.352Z,95.70
2018-11-11T06:22:31.951Z,95.60
2018-11-11T06:23:04.583Z,95.70
2018-11-11T06:23:37.205Z,95.70
2018-11-11T06:24:09.873Z,95.60
2018-11-11T06:24:42.498Z,95.60
2018-11-11T06:25:15.127Z,95.60
2018-11-11T06:25:47.750Z,95.70
2018-11-11T06:26:20.414Z,95.70
2018-11-11T06:26:53.051Z,95.70
2018-11-11T06:27:25.705Z,95.90
2018-11-11T06:27:58.326Z,95.80
2018-11-11T06:28:30.972Z,96.00
2018-11-11T06:29:03.627Z,96.10
2018-11-11T06:29:36.207Z,96.30
2018-11-11T06:30:09.531Z,96.30
2018-11-11T06:30:42.164Z,96.20
2018-11-11T06:31:14.813Z,96.30
2018-11-11T06:31:47.864Z,96.30
2018-11-11T06:32:20.456Z,96.40
2018-11-11T06:32:53.103Z,96.20
2018-11-11T06:33:25.696Z,96.20
2018-11-11T06:33:58.327Z,96.20
2018-11-11T06:34:30.897Z,96.00
2018-11-11T06:35:03.614Z,96.00
2018-11-11T06:35:36.249Z,96.20
2018-11-11T06:36:08.845Z,96.40
2018-11-11T06:36:41.469Z,96.40
2018-11-11T06:37:14.101Z,96.50
2018-11-11T06:37:46.722Z,96.50
2018-11-11T06:38:19.451Z,96.50
2018-11-11T06:38:52.063Z,96.40
2018-11-11T06:39:24.674Z,96.40
2018-11-11T06:39:57.284Z,96.40
2018-11-11T06:40:29.896Z,96.50
2018-11-11T06:41:02.495Z,96.50
2018-11-11T06:41:35.142Z,96.30
2018-11-11T06:42:07.796Z,96.20
2018-11-11T06:42:40.527Z,96.20
2018-11-11T06:43:13.170Z,96.10
2018-11-11T06:43:45.828Z,96.10
2018-11-11T06:44:18.435Z,96.20
2018-11-11T06:44:51.048Z,96.20
2018-11-11T06:45:23.704Z,96.20
2018-11-11T06:45:56.332Z,96.20
2018-11-11T06:46:28.934Z,96.20
2018-11-11T06:47:01.899Z,96.20
2018-11-11T06:47:34.519Z,96.30
2018-11-11T06:48:07.158Z,96.30
2018-11-11T06:48:39.727Z,96.20
2018-11-11T06:49:12.374Z,95.90
2018-11-11T06:49:44.982Z,95.80
2018-11-11T06:50:17.630Z,96.20
2018-11-11T06:50:50.244Z,95.90
2018-11-11T06:51:22.855Z,96.00
2018-11-11T06:51:55.443Z,96.00
2018-11-11T06:52:28.065Z,95.70
2018-11-11T06:53:00.711Z,95.50
2018-11-11T06:53:33.350Z,95.50
2018-11-11T06:54:06.097Z,95.70
2018-11-11T06:54:38.723Z,95.90
2018-11-11T06:55:11.629Z,95.90
2018-11-11T06:55:44.255Z,95.90
2018-11-11T06:56:16.844Z,96.10
2018-11-11T06:59:48.374Z,96.10
2018-11-11T07:00:20.967Z,96.20
2018-11-11T07:00:53.583Z,96.10
2018-11-11T07:01:26.212Z,95.90
2018-11-11T07:01:58.810Z,96.00
2018-11-11T07:02:34.727Z,95.90
2018-11-11T07:03:18.652Z,95.80
2018-11-11T07:03:53.496Z,95.70
2018-11-11T07:04:26.085Z,95.70
2018-11-11T07:04:58.719Z,95.80
2018-11-11T07:05:31.315Z,95.90
2018-11-11T07:06:03.928Z,96.00
2018-11-11T07:06:36.580Z,96.10
2018-11-11T07:07:09.195Z,96.10